Time;durP1;ratioP1;P1;durP2;ratioP2;P2;SDS_P1;SDS_P2;PMS_P1;PMS_P2;Temp;Humidity;BMP_temperature;BMP_pressure;BME280_temperature;BME280_humidity;BME280_pressure;Samples;Min_cycle;Max_cycle;Signal;HPM_P1;HPM_P2
2022/11/01 00:01:38;;;;;;;3.40;3.20;;;20.20;74.10;;;;;;5084922;27;43541;-70
2022/11/01 00:04:07;;;;;;;3.90;3.70;;;20.20;74.10;;;;;;5086394;27;44145;-71
2022/11/01 00:06:35;;;;;;;3.60;3.40;;;20.20;74.10;;;;;;5077577;27;44127;-70
2022/11/01 00:09:03;;;;;;;3.80;3.60;;;20.20;74.20;;;;;;5089443;27;44701;-71
2022/11/01 00:11:32;;;;;;;3.80;3.50;;;20.20;74.50;;;;;;5085303;27;43784;-72
2022/11/01 00:14:00;;;;;;;3.47;3.27;;;20.10;74.60;;;;;;5087537;27;43503;-71
2022/11/01 00:16:28;;;;;;;3.40;3.20;;;20.10;74.70;;;;;;5084647;27;43822;-70
2022/11/01 00:18:56;;;;;;;3.40;3.30;;;20.10;74.60;;;;;;5085960;27;43430;-73
2022/11/01 00:21:24;;;;;;;3.13;2.93;;;20.10;74.70;;;;;;5082682;27;43893;-71
2022/11/01 00:23:52;;;;;;;3.30;3.13;;;20.10;74.90;;;;;;5084558;27;43481;-71
2022/11/01 00:26:21;;;;;;;3.73;3.40;;;20.00;75.00;;;;;;5086659;27;43665;-71
2022/11/01 00:28:51;;;;;;;3.60;3.40;;;20.00;75.00;;;;;;5083545;27;43466;-70
2022/11/01 00:31:19;;;;;;;3.73;3.50;;;20.10;74.70;;;;;;5083317;27;43363;-71
2022/11/01 00:33:47;;;;;;;3.37;3.17;;;20.20;74.30;;;;;;5066366;27;43615;-72
2022/11/01 00:36:15;;;;;;;3.30;3.20;;;20.30;73.80;;;;;;5082800;27;44158;-71
2022/11/01 00:38:43;;;;;;;3.63;3.43;;;20.40;73.60;;;;;;5063352;28;43939;-71
2022/11/01 00:41:11;;;;;;;3.50;3.40;;;20.40;73.60;;;;;;5083763;27;43505;-70
2022/11/01 00:43:39;;;;;;;3.20;3.10;;;20.30;73.80;;;;;;5085780;27;44039;-71
2022/11/01 00:46:08;;;;;;;3.43;3.33;;;20.30;74.10;;;;;;5083422;27;43666;-71
2022/11/01 00:48:36;;;;;;;3.00;2.90;;;20.20;74.20;;;;;;5083744;27;43449;-71
2022/11/01 00:51:05;;;;;;;3.10;3.00;;;20.20;74.40;;;;;;5079400;27;43497;-71
2022/11/01 00:53:33;;;;;;;3.53;3.40;;;20.10;74.40;;;;;;5065884;27;43498;-72
2022/11/01 00:56:01;;;;;;;3.10;3.00;;;20.10;74.50;;;;;;5079693;27;43951;-72
2022/11/01 00:58:29;;;;;;;3.37;3.27;;;20.10;74.60;;;;;;5083721;27;43595;-70
2022/11/01 01:00:57;;;;;;;3.30;3.20;;;20.00;74.80;;;;;;5083101;27;44736;-72
2022/11/01 01:03:26;;;;;;;3.43;3.23;;;20.00;74.80;;;;;;5083807;27;43376;-71
2022/11/01 01:05:54;;;;;;;3.40;3.30;;;20.00;74.70;;;;;;5081642;27;43846;-70
2022/11/01 01:08:22;;;;;;;3.50;3.40;;;20.00;74.80;;;;;;5083065;27;43480;-72
2022/11/01 01:10:50;;;;;;;3.10;3.00;;;20.00;74.90;;;;;;5085294;27;43635;-71
2022/11/01 01:13:18;;;;;;;3.50;3.30;;;20.00;75.00;;;;;;5086207;27;43434;-71
2022/11/01 01:15:46;;;;;;;3.27;3.17;;;20.00;75.10;;;;;;5083443;27;43615;-70
2022/11/01 01:18:14;;;;;;;3.10;3.00;;;20.00;74.90;;;;;;5081624;27;43542;-70
2022/11/01 01:20:43;;;;;;;3.00;2.90;;;20.10;74.60;;;;;;5080078;27;43561;-71
2022/11/01 01:23:11;;;;;;;3.10;3.00;;;20.20;74.00;;;;;;5087970;27;44544;-70
2022/11/01 01:25:40;;;;;;;2.83;2.73;;;20.30;73.70;;;;;;5086664;27;43810;-71
2022/11/01 01:28:08;;;;;;;3.17;3.07;;;20.30;73.70;;;;;;5087526;27;43538;-72
2022/11/01 01:30:37;;;;;;;2.60;2.50;;;20.30;73.90;;;;;;5087051;27;43856;-71
2022/11/01 01:33:05;;;;;;;2.73;2.63;;;20.20;74.00;;;;;;5090542;27;43573;-70
2022/11/01 01:35:33;;;;;;;3.20;3.07;;;20.20;74.30;;;;;;5084798;27;43588;-71
2022/11/01 01:38:02;;;;;;;3.10;2.90;;;20.10;74.40;;;;;;5087225;27;43903;-71
2022/11/01 01:40:31;;;;;;;2.97;2.80;;;20.10;74.30;;;;;;5087417;27;43494;-70
2022/11/01 01:42:58;;;;;;;2.83;2.73;;;20.10;74.60;;;;;;5086302;27;43552;-71
2022/11/01 01:45:29;;;;;;;2.90;2.80;;;20.00;74.60;;;;;;5086983;27;45061;-72
2022/11/01 01:48:00;;;;;;;3.20;3.10;;;20.00;74.70;;;;;;5088069;27;43730;-71
2022/11/01 01:50:31;;;;;;;2.93;2.83;;;20.00;74.90;;;;;;5082662;27;43360;-71
2022/11/01 01:53:02;;;;;;;2.80;2.70;;;20.10;75.40;;;;;;5083314;27;43481;-71
2022/11/01 01:55:34;;;;;;;2.70;2.60;;;20.20;74.50;;;;;;5087322;27;43601;-71
2022/11/01 01:58:02;;;;;;;2.80;2.70;;;20.20;74.00;;;;;;5083975;27;43500;-72
2022/11/01 02:00:30;;;;;;;2.40;2.40;;;20.20;74.70;;;;;;5085106;27;43608;-70
2022/11/01 02:02:58;;;;;;;2.90;2.80;;;20.20;74.10;;;;;;5086332;27;45171;-72
2022/11/01 02:05:30;;;;;;;3.00;2.90;;;20.20;74.10;;;;;;5087008;27;44118;-71
2022/11/01 02:07:58;;;;;;;2.70;2.60;;;20.20;74.10;;;;;;5089539;27;43457;-71
2022/11/01 02:10:28;;;;;;;2.80;2.70;;;20.20;74.20;;;;;;5068147;28;43781;-71
2022/11/01 02:12:56;;;;;;;2.70;2.60;;;20.10;74.30;;;;;;5069009;27;43989;-71
2022/11/01 02:15:27;;;;;;;2.80;2.70;;;20.10;74.50;;;;;;5086395;27;43737;-71
2022/11/01 02:18:03;;;;;;;2.50;2.40;;;20.00;74.60;;;;;;5084658;27;45001;-71
2022/11/01 02:20:53;;;;;;;2.73;2.63;;;20.00;74.40;;;;;;5084340;27;43477;-71
2022/11/01 02:24:05;;;;;;;2.30;2.20;;;20.00;74.60;;;;;;5085419;27;43506;-71
2022/11/01 02:26:44;;;;;;;2.63;2.53;;;20.00;74.70;;;;;;5051901;27;43915;-71
2022/11/01 02:29:15;;;;;;;2.63;2.60;;;20.00;74.90;;;;;;5085543;27;43505;-71
2022/11/01 02:32:09;;;;;;;2.93;2.83;;;20.00;75.00;;;;;;5086004;27;43633;-71
2022/11/01 02:34:40;;;;;;;2.83;2.63;;;20.00;74.70;;;;;;5069661;27;43530;-71
2022/11/01 02:37:10;;;;;;;2.70;2.60;;;20.10;74.30;;;;;;5086422;27;43822;-71
2022/11/01 02:39:40;;;;;;;2.57;2.47;;;20.20;73.80;;;;;;5084578;27;44550;-71
2022/11/01 02:42:10;;;;;;;2.97;2.87;;;20.30;73.50;;;;;;5062782;27;43598;-71
2022/11/01 02:44:41;;;;;;;2.90;2.80;;;20.30;73.40;;;;;;5086145;27;43466;-71
2022/11/01 02:47:11;;;;;;;2.80;2.70;;;20.30;73.70;;;;;;5084408;27;45582;-71
2022/11/01 02:49:40;;;;;;;2.57;2.47;;;20.20;73.80;;;;;;5083157;27;44131;-71
2022/11/01 02:52:09;;;;;;;2.93;2.83;;;20.20;74.10;;;;;;5084290;27;43582;-72
2022/11/01 02:54:38;;;;;;;2.90;2.80;;;20.10;74.30;;;;;;5086427;27;44037;-70
2022/11/01 02:57:23;;;;;;;2.47;2.47;;;20.10;74.30;;;;;;5082438;27;44847;-72
2022/11/01 02:59:51;;;;;;;2.67;2.57;;;20.00;74.40;;;;;;5085714;27;44680;-71
2022/11/01 03:02:38;;;;;;;2.63;2.53;;;20.00;74.50;;;;;;5085928;27;43488;-70
2022/11/01 03:05:11;;;;;;;2.57;2.43;;;20.00;74.70;;;;;;5085571;27;44912;-71
2022/11/01 03:07:39;;;;;;;2.60;2.60;;;20.00;74.80;;;;;;5086713;27;44007;-71
2022/11/01 03:10:08;;;;;;;2.40;2.30;;;20.00;74.60;;;;;;5081852;27;43450;-71
2022/11/01 03:12:39;;;;;;;2.93;2.73;;;20.10;74.30;;;;;;5085335;27;43503;-71
2022/11/01 03:15:19;;;;;;;2.70;2.60;;;20.20;74.00;;;;;;5086642;27;43419;-70
2022/11/01 03:17:51;;;;;;;2.63;2.53;;;20.20;73.90;;;;;;5087483;27;43956;-72
2022/11/01 03:20:20;;;;;;;2.40;2.40;;;20.20;74.10;;;;;;5084324;27;43491;-71
2022/11/01 03:22:49;;;;;;;2.60;2.50;;;20.20;74.10;;;;;;5085039;27;43437;-71
2022/11/01 03:25:38;;;;;;;2.50;2.50;;;20.20;74.00;;;;;;5065126;27;43571;-71
2022/11/01 03:28:09;;;;;;;2.57;2.50;;;20.10;74.10;;;;;;5063988;27;45639;-72
2022/11/01 03:30:36;;;;;;;2.70;2.60;;;20.10;74.30;;;;;;5085365;27;43566;-71
2022/11/01 03:33:06;;;;;;;2.50;2.43;;;20.00;74.50;;;;;;5086758;27;43488;-70
2022/11/01 03:35:36;;;;;;;2.33;2.33;;;20.00;74.50;;;;;;5084165;27;44045;-72
2022/11/01 03:38:05;;;;;;;2.40;2.30;;;20.00;74.50;;;;;;5084282;27;44024;-72
2022/11/01 03:40:33;;;;;;;2.50;2.40;;;20.00;74.70;;;;;;5084751;27;44033;-71
2022/11/01 03:43:02;;;;;;;2.33;2.30;;;20.00;74.80;;;;;;5083743;27;43784;-72
2022/11/01 03:45:31;;;;;;;2.50;2.40;;;19.90;74.80;;;;;;5089141;27;43515;-72
2022/11/01 03:47:59;;;;;;;2.60;2.50;;;19.90;74.90;;;;;;5086568;27;43896;-70
2022/11/01 03:50:29;;;;;;;2.23;2.20;;;20.00;74.70;;;;;;5086793;27;43352;-70
2022/11/01 03:52:57;;;;;;;2.30;2.20;;;20.10;74.30;;;;;;5084634;27;43469;-72
2022/11/01 03:55:25;;;;;;;2.40;2.30;;;20.20;73.80;;;;;;5086636;27;43470;-71
2022/11/01 03:57:54;;;;;;;2.63;2.53;;;20.30;73.50;;;;;;5082318;27;44104;-72
2022/11/01 04:00:26;;;;;;;2.30;2.30;;;20.30;73.40;;;;;;5086686;27;43577;-72
2022/11/01 04:02:55;;;;;;;2.07;2.07;;;20.20;73.60;;;;;;5083280;27;43514;-70
2022/11/01 04:05:23;;;;;;;2.47;2.47;;;20.20;73.90;;;;;;5057479;28;43571;-70
2022/11/01 04:07:53;;;;;;;2.17;2.10;;;20.10;74.10;;;;;;5086983;27;43558;-70
2022/11/01 04:10:21;;;;;;;2.50;2.40;;;20.10;74.30;;;;;;5087694;27;44074;-71
2022/11/01 04:12:49;;;;;;;2.50;2.40;;;20.00;74.20;;;;;;5080141;27;43532;-72
2022/11/01 04:20:50;;;;;;;3.30;2.70;;;20.00;74.60;;;;;;5070269;28;44468;-71
2022/11/01 04:23:19;;;;;;;2.93;2.73;;;19.90;74.70;;;;;;5084869;27;43491;-70
2022/11/01 04:25:47;;;;;;;4.63;2.97;;;19.90;74.60;;;;;;5072810;27;43661;-70
2022/11/01 04:28:15;;;;;;;2.70;2.50;;;19.90;74.60;;;;;;5086272;27;43799;-72
2022/11/01 04:30:43;;;;;;;2.93;2.73;;;19.90;74.70;;;;;;5086643;28;43492;-70
2022/11/01 04:33:10;;;;;;;6.17;3.30;;;19.90;74.80;;;;;;5064782;28;43463;-72
2022/11/01 04:35:38;;;;;;;6.90;3.70;;;19.90;75.00;;;;;;5086503;28;43517;-71
2022/11/01 04:38:06;;;;;;;5.17;4.00;;;19.90;74.90;;;;;;5085584;28;43600;-69
2022/11/01 04:40:36;;;;;;;6.20;3.70;;;20.00;74.60;;;;;;5083115;28;43523;-70
2022/11/01 04:43:03;;;;;;;6.93;4.27;;;20.10;74.20;;;;;;5086339;28;43447;-69
2022/11/01 04:45:31;;;;;;;7.40;4.57;;;20.20;73.50;;;;;;5085316;28;43871;-71
2022/11/01 04:48:03;;;;;;;7.10;4.33;;;20.30;73.30;;;;;;5086748;28;43944;-71
2022/11/01 04:50:32;;;;;;;7.93;4.37;;;20.30;73.20;;;;;;5068023;28;44349;-71
2022/11/01 04:53:00;;;;;;;6.87;4.50;;;20.30;73.40;;;;;;5067973;28;43458;-71
2022/11/01 04:55:28;;;;;;;10.90;4.57;;;20.20;73.70;;;;;;5087956;27;43413;-70
2022/11/01 04:57:57;;;;;;;9.13;5.00;;;20.10;73.90;;;;;;5071470;28;45769;-71
2022/11/01 05:00:25;;;;;;;7.10;5.10;;;20.10;74.10;;;;;;5086649;28;43378;-71
2022/11/01 05:03:00;;;;;;;12.03;5.20;;;20.00;74.00;;;;;;5086327;28;43516;-72
2022/11/01 05:05:28;;;;;;;8.67;5.20;;;20.00;74.30;;;;;;5088216;28;43482;-71
2022/11/01 05:08:00;;;;;;;9.50;5.17;;;20.00;74.40;;;;;;5067444;28;45940;-72
2022/11/01 05:10:33;;;;;;;12.03;5.80;;;20.00;74.60;;;;;;5083733;28;43816;-71
2022/11/01 05:13:02;;;;;;;11.23;5.90;;;19.90;74.50;;;;;;5083173;28;43440;-72
2022/11/01 05:15:31;;;;;;;8.87;5.70;;;19.90;74.50;;;;;;5085831;28;43428;-71
2022/11/01 05:18:00;;;;;;;11.50;5.83;;;19.90;74.60;;;;;;5086136;28;43774;-71
2022/11/01 05:20:29;;;;;;;10.07;5.83;;;19.90;74.70;;;;;;5085410;28;43453;-70
2022/11/01 05:22:59;;;;;;;15.97;6.57;;;19.90;74.80;;;;;;5085893;28;43470;-71
2022/11/01 05:25:27;;;;;;;13.50;6.63;;;19.80;74.90;;;;;;5086583;28;43551;-71
2022/11/01 05:28:03;;;;;;;15.40;7.20;;;19.90;74.80;;;;;;5084050;28;43599;-70
2022/11/01 05:30:31;;;;;;;11.93;7.00;;;20.00;74.50;;;;;;5084152;28;43519;-70
2022/11/01 05:33:00;;;;;;;15.30;6.83;;;20.20;74.00;;;;;;5086614;28;43486;-71
2022/11/01 05:35:28;;;;;;;16.53;6.87;;;20.30;73.70;;;;;;5084641;28;43510;-70
2022/11/01 05:37:56;;;;;;;15.60;7.10;;;20.20;73.30;;;;;;5085840;28;43608;-71
2022/11/01 05:40:24;;;;;;;15.63;6.97;;;20.20;73.50;;;;;;5083262;28;43478;-70
2022/11/01 05:42:53;;;;;;;12.93;6.43;;;20.20;73.70;;;;;;5087439;28;43407;-70
2022/11/01 05:45:22;;;;;;;15.37;7.50;;;20.10;74.00;;;;;;5084901;28;44280;-69
2022/11/01 05:47:50;;;;;;;16.93;7.83;;;20.00;74.20;;;;;;5084148;28;43600;-70
2022/11/01 05:50:18;;;;;;;16.00;6.87;;;20.00;74.20;;;;;;5080752;28;43506;-70
2022/11/01 05:52:46;;;;;;;15.67;7.37;;;20.00;74.30;;;;;;5063971;28;43447;-71
2022/11/01 05:55:14;;;;;;;12.73;6.90;;;20.00;74.50;;;;;;5083480;28;43590;-71
2022/11/01 05:57:42;;;;;;;15.87;7.33;;;19.90;74.50;;;;;;5082816;28;43852;-71
2022/11/01 06:00:11;;;;;;;15.47;7.23;;;19.90;74.70;;;;;;5078934;28;43471;-70
2022/11/01 06:02:40;;;;;;;14.87;7.33;;;19.90;74.80;;;;;;5082196;28;43525;-72
2022/11/01 06:05:10;;;;;;;15.70;7.73;;;19.90;74.70;;;;;;5085338;28;43461;-70
2022/11/01 06:07:37;;;;;;;13.40;6.90;;;19.90;75.50;;;;;;5083067;27;43931;-73
2022/11/01 06:10:06;;;;;;;17.63;7.70;;;19.90;74.80;;;;;;5083509;28;43485;-72
2022/11/01 06:12:34;;;;;;;16.83;8.13;;;19.80;74.90;;;;;;5082761;27;43493;-71
2022/11/01 06:15:02;;;;;;;15.13;7.93;;;19.80;74.90;;;;;;5084452;28;44506;-71
2022/11/01 06:17:30;;;;;;;16.43;8.07;;;19.90;74.80;;;;;;5077216;27;45654;-70
2022/11/01 06:19:59;;;;;;;14.33;7.73;;;20.00;74.30;;;;;;5083298;28;43467;-71
2022/11/01 06:22:27;;;;;;;16.13;7.87;;;20.20;73.90;;;;;;5085585;28;43466;-71
2022/11/01 06:24:55;;;;;;;19.40;8.60;;;20.20;73.50;;;;;;5084345;28;43625;-71
2022/11/01 06:27:23;;;;;;;15.13;8.00;;;20.30;73.50;;;;;;5079405;28;44699;-69
2022/11/01 06:29:51;;;;;;;16.37;7.90;;;20.20;73.50;;;;;;5083445;28;43477;-72
2022/11/01 06:32:19;;;;;;;12.13;7.43;;;20.20;73.80;;;;;;5081414;28;43491;-70
2022/11/01 06:34:47;;;;;;;14.83;7.77;;;20.10;74.00;;;;;;5085176;28;43522;-72
2022/11/01 06:37:16;;;;;;;17.47;8.30;;;20.00;74.30;;;;;;5079593;28;44084;-73
2022/11/01 06:39:44;;;;;;;16.83;8.47;;;20.00;74.30;;;;;;5083337;28;43502;-70
2022/11/01 06:42:12;;;;;;;14.93;8.23;;;20.00;74.50;;;;;;5079852;28;44060;-71
2022/11/01 06:44:40;;;;;;;15.10;7.33;;;19.90;74.50;;;;;;5084983;28;43814;-70
2022/11/01 06:47:08;;;;;;;13.97;7.63;;;19.90;74.60;;;;;;5083264;28;43610;-70
2022/11/01 06:49:35;;;;;;;15.37;8.20;;;19.90;74.80;;;;;;5063134;28;45357;-71
2022/11/01 06:52:04;;;;;;;16.50;8.63;;;19.90;74.80;;;;;;5084957;28;43939;-71
2022/11/01 06:54:33;;;;;;;14.70;7.83;;;19.90;74.70;;;;;;5080946;28;43669;-72
2022/11/01 06:57:01;;;;;;;15.57;7.87;;;19.90;74.80;;;;;;5083509;28;45039;-71
2022/11/01 06:59:29;;;;;;;15.73;8.07;;;19.80;74.80;;;;;;5084825;28;44160;-70
2022/11/01 07:01:57;;;;;;;13.27;7.87;;;19.80;74.90;;;;;;5085287;28;44138;-70
2022/11/01 07:04:28;;;;;;;16.07;8.23;;;19.80;74.90;;;;;;5085557;28;43629;-70
2022/11/01 07:06:55;;;;;;;16.63;7.43;;;19.90;74.70;;;;;;5085232;28;43843;-71
2022/11/01 07:09:23;;;;;;;16.20;8.13;;;20.10;74.30;;;;;;5084534;28;43497;-71
2022/11/01 07:11:53;;;;;;;12.90;8.03;;;20.20;73.70;;;;;;5083855;28;43485;-71
2022/11/01 07:14:21;;;;;;;19.60;8.70;;;20.30;73.30;;;;;;5086733;28;43896;-71
2022/11/01 07:16:49;;;;;;;14.10;8.20;;;20.30;73.20;;;;;;5081561;28;43858;-71
2022/11/01 07:19:17;;;;;;;12.80;6.77;;;20.30;73.40;;;;;;5081508;28;44043;-72
2022/11/01 07:21:45;;;;;;;14.23;8.03;;;20.20;73.60;;;;;;5086209;28;44060;-71
2022/11/01 07:24:12;;;;;;;14.00;7.83;;;20.10;73.80;;;;;;5084472;28;43385;-71
2022/11/01 07:26:40;;;;;;;16.07;8.20;;;20.00;74.00;;;;;;5083402;28;43694;-71
2022/11/01 07:29:10;;;;;;;17.03;8.27;;;20.00;74.00;;;;;;5063239;28;44535;-70
2022/11/01 07:31:38;;;;;;;14.07;7.27;;;20.00;74.30;;;;;;5079564;28;43886;-72
2022/11/01 07:34:06;;;;;;;12.50;7.13;;;20.00;74.30;;;;;;5080422;28;44366;-71
2022/11/01 07:36:34;;;;;;;16.60;8.60;;;20.00;74.50;;;;;;5083423;28;43854;-71
2022/11/01 07:39:02;;;;;;;13.73;8.23;;;19.90;74.50;;;;;;5083839;28;43572;-72
2022/11/01 07:41:30;;;;;;;13.20;7.43;;;19.90;74.40;;;;;;5082138;28;45335;-72
2022/11/01 07:43:58;;;;;;;12.93;7.40;;;20.00;74.50;;;;;;5082053;27;43616;-71
2022/11/01 07:46:29;;;;;;;14.87;7.47;;;19.90;74.50;;;;;;5084498;28;43849;-71
2022/11/01 07:48:59;;;;;;;15.07;7.90;;;19.90;74.60;;;;;;5063851;28;45100;-70
2022/11/01 07:51:27;;;;;;;16.80;8.23;;;19.90;74.80;;;;;;5081183;28;43455;-70
2022/11/01 07:53:55;;;;;;;14.53;7.70;;;19.90;74.70;;;;;;5082666;28;43426;-72
2022/11/01 07:56:23;;;;;;;13.63;7.90;;;20.00;74.30;;;;;;5082411;28;43611;-72
2022/11/01 07:58:51;;;;;;;15.67;7.83;;;20.10;73.80;;;;;;5075536;28;43528;-71
2022/11/01 08:01:19;;;;;;;13.00;7.30;;;20.20;73.60;;;;;;5083492;28;43591;-70
2022/11/01 08:03:49;;;;;;;14.30;7.73;;;20.20;73.60;;;;;;5081652;28;43539;-70
2022/11/01 08:06:17;;;;;;;18.57;8.43;;;20.10;73.70;;;;;;5082019;28;43854;-70
2022/11/01 08:08:45;;;;;;;12.27;7.43;;;20.10;73.70;;;;;;5080346;28;43495;-70
2022/11/01 08:11:13;;;;;;;14.77;7.67;;;20.10;73.70;;;;;;5080110;28;43478;-70
2022/11/01 08:13:41;;;;;;;11.17;6.97;;;20.10;74.00;;;;;;5083360;28;43459;-71
2022/11/01 08:16:09;;;;;;;12.27;7.40;;;20.00;74.00;;;;;;5081228;28;43940;-71
2022/11/01 08:18:37;;;;;;;14.60;8.00;;;20.00;74.20;;;;;;5078480;28;43859;-73
2022/11/01 08:21:06;;;;;;;15.30;8.17;;;19.90;74.00;;;;;;5064592;28;43475;-71
2022/11/01 08:23:34;;;;;;;12.97;7.23;;;20.00;74.30;;;;;;5079647;28;44041;-70
2022/11/01 08:26:05;;;;;;;9.10;6.27;;;20.00;74.30;;;;;;5062867;28;46112;-73
2022/11/01 08:28:33;;;;;;;11.73;7.20;;;19.90;74.30;;;;;;5081125;28;43479;-72
2022/11/01 08:31:05;;;;;;;14.50;7.63;;;19.90;74.50;;;;;;5081130;28;43510;-71
2022/11/01 08:33:33;;;;;;;10.80;7.53;;;19.90;74.40;;;;;;5079552;28;44095;-70
2022/11/01 08:36:01;;;;;;;12.00;7.40;;;20.00;74.10;;;;;;5082294;28;43932;-71
2022/11/01 08:38:30;;;;;;;12.57;7.23;;;20.10;73.70;;;;;;5062787;28;45039;-72
2022/11/01 08:40:59;;;;;;;13.20;7.07;;;20.10;73.40;;;;;;5082204;28;43968;-71
2022/11/01 08:43:26;;;;;;;14.27;8.17;;;20.10;73.80;;;;;;5083248;28;43484;-70
2022/11/01 08:45:54;;;;;;;15.03;8.27;;;20.10;73.60;;;;;;5083376;28;43778;-73
2022/11/01 08:48:22;;;;;;;11.70;7.13;;;20.10;73.50;;;;;;5078937;28;43459;-72
2022/11/01 08:50:50;;;;;;;10.00;6.60;;;20.10;73.70;;;;;;5066142;28;43493;-71
2022/11/01 08:53:18;;;;;;;10.33;6.20;;;20.00;73.80;;;;;;5065717;28;44099;-71
2022/11/01 08:55:47;;;;;;;12.27;7.17;;;20.00;74.00;;;;;;5063807;28;45984;-70
2022/11/01 08:58:20;;;;;;;11.17;6.87;;;20.00;74.00;;;;;;5085100;27;44746;-70
2022/11/01 09:00:48;;;;;;;9.70;6.83;;;20.00;74.00;;;;;;5081543;28;43449;-70
2022/11/01 09:03:16;;;;;;;10.87;7.00;;;19.90;74.10;;;;;;5082760;27;44415;-72
2022/11/01 09:05:44;;;;;;;8.10;6.13;;;19.90;74.10;;;;;;5080569;28;43935;-71
2022/11/01 09:08:12;;;;;;;9.87;6.87;;;19.90;74.30;;;;;;5065870;28;44300;-71
2022/11/01 09:10:40;;;;;;;11.90;7.10;;;19.90;74.40;;;;;;5077991;27;43478;-71
2022/11/01 09:13:09;;;;;;;10.47;6.57;;;19.90;74.20;;;;;;5066809;28;43469;-70
2022/11/01 09:15:37;;;;;;;10.63;6.33;;;20.00;73.80;;;;;;5085208;28;43843;-70
2022/11/01 09:18:06;;;;;;;11.00;6.50;;;20.10;73.60;;;;;;5085228;28;43459;-71
2022/11/01 09:20:34;;;;;;;11.77;6.80;;;20.10;73.40;;;;;;5086230;28;43508;-71
2022/11/01 09:23:02;;;;;;;9.87;6.07;;;20.10;73.70;;;;;;5086796;28;43458;-70
2022/11/01 09:25:30;;;;;;;9.70;6.43;;;20.00;73.60;;;;;;5085762;28;43699;-72
2022/11/01 09:27:58;;;;;;;9.80;6.63;;;20.10;73.60;;;;;;5085008;27;43513;-70
2022/11/01 09:30:28;;;;;;;7.47;6.20;;;20.00;73.60;;;;;;5083489;27;43870;-73
2022/11/01 09:32:56;;;;;;;8.17;5.97;;;20.00;73.70;;;;;;5084426;27;43613;-72
2022/11/01 09:35:24;;;;;;;9.90;6.77;;;20.00;73.90;;;;;;5083240;27;43615;-71
2022/11/01 09:37:57;;;;;;;9.27;6.20;;;19.90;74.00;;;;;;5067584;27;44328;-71
2022/11/01 09:40:25;;;;;;;9.03;6.30;;;19.90;73.80;;;;;;5082483;27;43413;-71
2022/11/01 09:42:53;;;;;;;10.40;6.20;;;19.90;73.90;;;;;;5086109;27;43463;-71
2022/11/01 09:45:30;;;;;;;5.73;5.03;;;19.90;74.00;;;;;;5085468;27;43575;-71
2022/11/01 09:47:58;;;;;;;22.43;6.20;;;19.90;74.00;;;;;;5085709;27;43523;-70
2022/11/01 09:50:28;;;;;;;10.47;5.37;;;19.80;73.70;;;;;;5089434;27;43433;-71
2022/11/01 09:52:57;;;;;;;8.53;5.30;;;19.90;73.00;;;;;;5087867;27;43497;-72
2022/11/01 09:55:30;;;;;;;10.90;5.53;;;20.00;73.60;;;;;;5068261;28;45291;-70
2022/11/01 09:58:00;;;;;;;6.60;5.03;;;20.00;73.10;;;;;;5087018;27;43475;-69
2022/11/01 10:00:31;;;;;;;6.53;5.23;;;20.10;73.20;;;;;;5089343;27;43387;-71
2022/11/01 10:03:20;;;;;;;6.73;5.40;;;20.10;73.50;;;;;;5085065;27;44186;-70
2022/11/01 10:05:54;;;;;;;6.07;4.90;;;20.00;73.10;;;;;;5069088;28;44304;-71
2022/11/01 10:08:29;;;;;;;7.63;5.00;;;20.00;73.00;;;;;;5083700;28;43315;-71
2022/11/01 10:11:04;;;;;;;5.60;4.57;;;20.00;73.50;;;;;;5088621;28;43415;-72
2022/11/01 10:13:37;;;;;;;6.10;4.77;;;20.00;73.70;;;;;;5089406;28;43403;-71
2022/11/01 10:16:08;;;;;;;7.90;4.83;;;20.00;73.70;;;;;;5088051;27;43908;-70
2022/11/01 10:18:39;;;;;;;9.53;4.67;;;20.00;73.40;;;;;;5086498;27;43994;-71
2022/11/01 10:21:11;;;;;;;6.67;4.10;;;20.00;73.70;;;;;;5084408;27;43907;-71
2022/11/01 10:23:42;;;;;;;5.57;4.37;;;19.90;73.80;;;;;;5087949;27;43578;-70
2022/11/01 10:26:13;;;;;;;5.73;4.20;;;19.90;73.80;;;;;;5066699;27;45584;-71
2022/11/01 10:28:46;;;;;;;5.27;4.40;;;19.90;73.90;;;;;;5088965;27;43454;-71
2022/11/01 10:31:17;;;;;;;7.67;4.23;;;19.90;73.70;;;;;;5067096;27;45192;-72
2022/11/01 10:33:47;;;;;;;5.63;3.93;;;20.00;73.60;;;;;;5087257;27;43383;-70
2022/11/01 10:36:17;;;;;;;5.87;4.00;;;20.00;73.90;;;;;;5085702;27;45499;-70
2022/11/01 10:38:46;;;;;;;4.40;3.53;;;20.20;72.80;;;;;;5083812;27;43462;-71
2022/11/01 10:41:37;;;;;;;4.07;3.47;;;20.20;72.30;;;;;;5088842;27;43508;-71
2022/11/01 10:44:07;;;;;;;3.63;3.33;;;20.20;72.70;;;;;;5089171;28;43416;-70
2022/11/01 10:46:38;;;;;;;5.30;3.43;;;20.20;73.00;;;;;;5093505;27;45301;-72
2022/11/01 10:49:13;;;;;;;3.27;3.07;;;20.10;73.20;;;;;;5088243;28;43446;-70
2022/11/01 10:51:41;;;;;;;4.13;3.73;;;20.10;73.40;;;;;;5085551;27;43578;-71
2022/11/01 10:54:15;;;;;;;4.60;3.80;;;20.00;73.30;;;;;;5087417;27;43493;-70
2022/11/01 10:56:45;;;;;;;3.20;2.90;;;20.00;73.70;;;;;;5086069;27;43911;-72
2022/11/01 10:59:15;;;;;;;3.63;3.20;;;20.00;73.70;;;;;;5085817;27;43482;-71
2022/11/01 11:01:45;;;;;;;3.93;3.63;;;20.00;73.80;;;;;;5089114;27;43752;-71
2022/11/01 11:04:15;;;;;;;3.97;3.60;;;20.00;73.90;;;;;;5088042;27;43444;-71
2022/11/01 11:06:43;;;;;;;3.50;3.20;;;20.00;73.80;;;;;;5083516;27;43927;-70
2022/11/01 11:09:17;;;;;;;3.33;3.03;;;20.00;74.00;;;;;;5090098;27;43478;-70
2022/11/01 11:11:45;;;;;;;3.10;2.90;;;20.00;74.10;;;;;;5055415;27;43384;-73
2022/11/01 11:14:13;;;;;;;3.40;3.10;;;20.00;74.00;;;;;;5082079;27;43453;-71
2022/11/01 11:16:44;;;;;;;3.60;3.17;;;20.00;74.10;;;;;;5086865;27;43839;-71
2022/11/01 11:19:18;;;;;;;3.50;3.20;;;19.90;74.00;;;;;;5081387;27;43453;-69
2022/11/01 11:21:48;;;;;;;3.83;3.27;;;20.00;73.80;;;;;;5088553;27;43657;-71
2022/11/01 11:24:20;;;;;;;3.30;3.00;;;20.10;73.50;;;;;;5087053;27;43544;-72
2022/11/01 11:26:49;;;;;;;3.23;3.00;;;20.20;73.00;;;;;;5070173;27;45308;-70
2022/11/01 11:29:47;;;;;;;3.70;2.97;;;20.30;72.70;;;;;;5083908;27;44038;-72
2022/11/01 11:32:17;;;;;;;3.23;3.03;;;20.30;73.00;;;;;;5077816;27;43612;-70
2022/11/01 11:34:51;;;;;;;2.87;2.67;;;20.30;73.30;;;;;;5085345;27;43523;-71
2022/11/01 11:37:20;;;;;;;2.83;2.63;;;20.20;73.40;;;;;;5088767;27;43805;-71
2022/11/01 11:40:16;;;;;;;3.20;2.83;;;20.10;73.60;;;;;;5086408;27;43557;-70
2022/11/01 11:42:44;;;;;;;2.70;2.60;;;20.10;73.60;;;;;;5087502;27;43489;-70
2022/11/01 11:45:21;;;;;;;2.97;2.40;;;20.10;74.00;;;;;;5087521;27;43521;-72
2022/11/01 11:47:49;;;;;;;2.97;2.77;;;20.10;74.10;;;;;;5089590;27;43944;-71
2022/11/01 11:50:31;;;;;;;3.10;2.80;;;20.10;74.20;;;;;;5087260;28;43494;-70
2022/11/01 11:53:06;;;;;;;2.77;2.57;;;20.00;74.20;;;;;;5083020;28;43466;-71
2022/11/01 11:55:40;;;;;;;4.77;2.93;;;20.00;74.20;;;;;;5087776;28;44030;-72
2022/11/01 11:58:20;;;;;;;2.70;2.60;;;20.00;74.20;;;;;;5086985;28;44523;-70
2022/11/01 12:00:49;;;;;;;3.10;2.90;;;20.00;74.20;;;;;;5083739;27;43460;-72
2022/11/01 12:03:16;;;;;;;2.73;2.63;;;20.00;74.20;;;;;;5067704;27;43609;-70
2022/11/01 12:05:54;;;;;;;6.70;2.67;;;20.00;74.30;;;;;;5085112;27;44391;-71
2022/11/01 12:08:26;;;;;;;9.60;2.70;;;20.00;74.10;;;;;;5088313;27;43592;-72
2022/11/01 12:10:57;;;;;;;12.00;3.00;;;20.10;73.90;;;;;;5089982;27;43546;-71
2022/11/01 12:13:31;;;;;;;23.57;3.80;;;20.20;73.50;;;;;;5069040;28;43482;-72
2022/11/01 12:16:07;;;;;;;18.57;3.30;;;20.30;72.90;;;;;;5087748;28;43538;-69
2022/11/01 12:18:35;;;;;;;18.47;3.20;;;20.40;73.40;;;;;;5086900;28;43932;-70
2022/11/01 12:21:05;;;;;;;11.80;2.90;;;20.40;73.00;;;;;;5086507;28;43933;-72
2022/11/01 12:23:35;;;;;;;13.80;3.30;;;20.30;73.30;;;;;;5085889;28;43418;-71
2022/11/01 12:26:06;;;;;;;9.90;3.20;;;20.30;73.40;;;;;;5086345;28;43443;-71
2022/11/01 12:28:37;;;;;;;21.53;3.30;;;20.20;73.50;;;;;;5066395;28;46376;-70
2022/11/01 12:31:11;;;;;;;21.47;3.30;;;20.20;73.60;;;;;;5084587;28;43465;-73
2022/11/01 12:33:42;;;;;;;8.07;3.17;;;20.20;73.80;;;;;;5065573;28;43556;-70
2022/11/01 12:36:11;;;;;;;16.30;2.70;;;20.20;73.80;;;;;;5087191;28;43510;-71
2022/11/01 12:38:42;;;;;;;12.97;3.30;;;20.10;73.80;;;;;;5086347;28;43607;-70
2022/11/01 12:41:16;;;;;;;14.90;2.93;;;20.10;74.00;;;;;;5065826;28;44691;-72
2022/11/01 12:43:50;;;;;;;10.00;2.80;;;20.10;74.10;;;;;;5065229;28;43782;-72
2022/11/01 12:46:21;;;;;;;10.50;3.57;;;20.10;74.10;;;;;;5086331;27;43462;-70
2022/11/01 12:48:51;;;;;;;5.73;2.50;;;20.10;74.20;;;;;;5087658;27;43848;-72
2022/11/01 12:51:22;;;;;;;11.43;2.80;;;20.10;74.30;;;;;;5084638;27;44600;-69
2022/11/01 12:53:52;;;;;;;9.33;3.10;;;20.10;74.30;;;;;;5067353;27;43445;-72
2022/11/01 12:56:19;;;;;;;9.60;2.80;;;20.10;74.00;;;;;;5086411;28;43505;-70
2022/11/01 12:58:47;;;;;;;8.07;2.40;;;20.20;73.80;;;;;;5068192;28;45666;-71
2022/11/01 13:01:26;;;;;;;5.20;2.80;;;20.30;73.40;;;;;;5085433;28;43928;-70
2022/11/01 13:04:03;;;;;;;11.40;2.70;;;20.40;72.90;;;;;;5079813;27;43541;-72